Time;durP1;ratioP1;P1;durP2;ratioP2;P2;SDS_P1;SDS_P2;PMS_P1;PMS_P2;Temp;Humidity;BMP_temperature;BMP_pressure;BME280_temperature;BME280_humidity;BME280_pressure;Samples;Min_cycle;Max_cycle;Signal;HPM_P1;HPM_P2
2022/08/17 00:01:29;;;;;;;;;22.50;22.50;;;;;23.32;61.70;101031.50;5024408;28;8826;-66
2022/08/17 00:04:17;;;;;;;;;20.50;20.00;;;;;23.34;61.80;101037.56;5030432;28;8959;-66
2022/08/17 00:06:44;;;;;;;;;21.00;21.00;;;;;23.34;61.70;101039.50;5030469;28;8896;-66
2022/08/17 00:09:14;;;;;;;;;16.00;15.50;;;;;23.32;61.83;101042.50;5027631;28;8835;-66
2022/08/17 00:11:46;;;;;;;;;19.75;19.50;;;;;23.31;61.65;101045.53;5027124;28;8836;-66
2022/08/17 00:14:33;;;;;;;;;23.00;21.00;;;;;23.28;61.81;101041.41;5024730;28;8848;-66
2022/08/17 00:17:01;;;;;;;;;20.25;20.25;;;;;23.25;61.76;101030.97;5016995;28;8951;-66
2022/08/17 00:19:28;;;;;;;;;19.50;19.50;;;;;23.24;61.85;101034.81;5010753;28;8817;-66
2022/08/17 00:21:56;;;;;;;;;23.00;21.25;;;;;23.22;61.71;101037.03;5010561;28;9531;-66
2022/08/17 00:24:43;;;;;;;;;30.50;24.00;;;;;23.23;61.71;101035.09;5016385;28;8880;-66
2022/08/17 00:27:09;;;;;;;;;21.25;20.25;;;;;23.21;61.58;101029.84;5028279;28;9537;-66
2022/08/17 00:29:35;;;;;;;;;19.75;19.50;;;;;23.22;61.46;101034.28;5019715;28;8829;-66
2022/08/17 00:32:02;;;;;;;;;24.50;22.25;;;;;23.20;61.13;101029.03;5026565;28;8825;-66
2022/08/17 00:34:49;;;;;;;;;20.00;20.00;;;;;23.21;61.12;101027.13;5029739;28;8838;-67
2022/08/17 00:37:15;;;;;;;;;19.50;17.50;;;;;23.18;61.23;101023.00;5030264;28;8895;-66
2022/08/17 00:39:42;;;;;;;;;26.50;25.50;;;;;23.19;61.11;101027.41;5020532;28;8960;-66
2022/08/17 00:42:17;;;;;;;;;28.75;25.50;;;;;23.19;61.05;101021.09;5030326;28;9534;-66
2022/08/17 00:44:44;;;;;;;;;19.50;17.50;;;;;23.18;61.02;101019.44;5029445;28;8838;-67
2022/08/17 00:47:11;;;;;;;;;20.00;19.50;;;;;23.17;61.03;101015.03;5022634;28;8834;-66
2022/08/17 00:49:37;;;;;;;;;25.00;23.00;;;;;23.11;60.80;100997.75;5023820;28;8955;-66
2022/08/17 00:52:14;;;;;;;;;18.50;17.25;;;;;23.07;61.15;100999.38;5026862;28;8826;-66
2022/08/17 00:54:43;;;;;;;;;22.75;19.75;;;;;23.11;60.94;101000.47;5029738;28;8810;-66
2022/08/17 00:57:16;;;;;;;;;19.75;18.00;;;;;23.16;60.87;101003.22;5028141;28;9525;-66
2022/08/17 00:59:47;;;;;;;;;20.50;20.50;;;;;23.16;60.76;101000.47;5030106;28;8964;-66
2022/08/17 01:02:31;;;;;;;;;22.00;21.25;;;;;23.17;60.67;100996.66;5028331;28;8896;-66
2022/08/17 01:05:13;;;;;;;;;22.75;22.25;;;;;23.17;60.81;100993.91;5028793;28;8840;-66
2022/08/17 01:07:41;;;;;;;;;22.25;22.00;;;;;23.17;60.93;100993.91;5016041;28;8896;-66
2022/08/17 01:10:10;;;;;;;;;21.50;21.50;;;;;23.17;60.69;100998.56;5032077;28;8829;-66
2022/08/17 01:12:56;;;;;;;;;19.25;19.25;;;;;23.13;60.84;100991.97;5033284;28;8862;-66
2022/08/17 01:15:23;;;;;;;;;21.25;18.75;;;;;23.06;61.08;100991.44;5033247;28;8829;-66
2022/08/17 01:17:50;;;;;;;;;16.75;13.00;;;;;23.03;61.20;100989.22;5028146;28;8842;-66
2022/08/17 01:20:16;;;;;;;;;21.50;19.50;;;;;23.03;61.22;100989.22;5025723;28;8964;-66
2022/08/17 01:22:42;;;;;;;;;23.75;23.75;;;;;23.03;61.10;100992.78;5032081;28;8895;-66
2022/08/17 01:25:11;;;;;;;;;18.00;18.00;;;;;23.02;60.85;100993.06;5032584;28;8920;-66
2022/08/17 01:27:39;;;;;;;;;15.00;14.25;;;;;23.01;60.59;100997.75;5028169;28;8968;-66
2022/08/17 01:30:09;;;;;;;;;17.50;17.25;;;;;22.99;60.52;100999.94;5033691;28;8830;-66
2022/08/17 01:32:56;;;;;;;;;19.25;18.75;;;;;22.94;60.57;100995.25;5027752;28;8858;-66
2022/08/17 01:35:22;;;;;;;;;18.00;18.00;;;;;22.94;60.21;100989.78;5032304;28;8841;-66
2022/08/17 01:37:49;;;;;;;;;25.00;24.25;;;;;22.95;59.80;100998.81;5030353;28;8848;-66
2022/08/17 01:40:31;;;;;;;;;27.00;27.00;;;;;22.93;59.06;101006.53;5023723;28;8816;-66
2022/08/17 01:43:29;;;;;;;;;20.75;20.75;;;;;22.86;59.25;101001.25;5025868;28;8965;-66
2022/08/17 01:45:58;;;;;;;;;21.75;21.00;;;;;22.87;59.33;101002.91;5023839;28;8959;-66
2022/08/17 01:48:35;;;;;;;;;19.75;17.50;;;;;22.90;59.32;100998.78;5026941;28;8824;-66
2022/08/17 01:51:05;;;;;;;;;16.25;15.25;;;;;22.93;59.06;100992.81;5033438;28;8822;-66
2022/08/17 01:53:35;;;;;;;;;20.25;20.25;;;;;22.94;58.84;100995.25;5017703;28;8825;-66
2022/08/17 01:56:08;;;;;;;;;16.00;15.75;;;;;22.91;58.81;100987.56;5026564;28;8903;-66
2022/08/17 01:58:36;;;;;;;;;13.00;12.50;;;;;22.87;59.33;100982.88;5033837;28;8800;-66
2022/08/17 02:01:05;;;;;;;;;17.25;15.25;;;;;22.87;59.52;100980.94;5029875;28;8984;-66
2022/08/17 02:03:33;;;;;;;;;17.00;17.00;;;;;22.88;59.48;100984.50;5030948;28;8834;-66
2022/08/17 02:06:01;;;;;;;;;15.00;13.50;;;;;22.90;59.42;100996.91;5033082;28;8829;-66
2022/08/17 02:08:34;;;;;;;;;20.00;19.50;;;;;22.90;59.52;101001.53;5014585;28;8839;-66
2022/08/17 02:11:10;;;;;;;;;18.25;17.25;;;;;22.88;59.65;100993.56;5013245;28;8813;-66
2022/08/17 02:13:38;;;;;;;;;17.75;17.75;;;;;22.83;59.73;100987.25;5031377;28;8916;-66
2022/08/17 02:16:04;;;;;;;;;22.00;21.00;;;;;22.82;59.96;100989.19;5027685;28;9580;-66
2022/08/17 02:18:31;;;;;;;;;20.75;19.75;;;;;22.86;59.96;100994.94;5028350;28;8891;-66
2022/08/17 02:20:58;;;;;;;;;28.25;27.25;;;;;22.86;60.02;101016.91;5032037;28;8921;-66
2022/08/17 02:23:27;;;;;;;;;27.75;27.25;;;;;22.84;60.28;101030.88;5032651;28;8834;-66
2022/08/17 02:25:56;;;;;;;;;46.00;39.00;;;;;22.77;60.85;101101.72;5032654;28;8988;-66
2022/08/17 02:28:23;;;;;;;;;45.25;40.00;;;;;22.57;60.94;101098.88;5032366;28;9848;-65
2022/08/17 02:30:49;;;;;;;;;42.00;38.67;;;;;22.44;63.00;101111.16;5029998;28;9490;-66
2022/08/17 02:33:31;;;;;;;;;40.33;34.00;;;;;22.36;65.25;101093.31;5031902;28;9293;-65
2022/08/17 02:36:11;;;;;;;;;38.00;34.33;;;;;22.29;66.49;101078.19;5013816;28;9152;-65
2022/08/17 02:38:39;;;;;;;;;25.75;24.00;;;;;22.25;67.02;101052.38;5012484;28;9359;-65
2022/08/17 02:41:06;;;;;;;;;25.50;25.25;;;;;22.06;67.73;101047.31;5012555;28;8809;-65
2022/08/17 02:43:33;;;;;;;;;28.00;26.25;;;;;21.94;68.41;101043.94;5015738;28;8813;-64
2022/08/17 02:46:00;;;;;;;;;27.75;27.75;;;;;21.90;69.04;101049.13;5022618;28;8846;-64
2022/08/17 02:48:26;;;;;;;;;19.00;18.25;;;;;21.96;69.30;101039.03;5025140;28;8915;-65
2022/08/17 02:50:57;;;;;;;;;16.50;15.50;;;;;21.96;69.21;101039.03;5031974;28;8866;-65
2022/08/17 02:53:23;;;;;;;;;18.75;18.50;;;;;21.90;69.18;101037.34;5032107;28;8802;-65
2022/08/17 02:55:52;;;;;;;;;19.00;18.75;;;;;21.81;69.36;101039.75;5031696;28;9606;-65
2022/08/17 02:58:19;;;;;;;;;31.67;29.00;;;;;21.80;69.60;101043.59;5023790;28;8853;-64
2022/08/17 03:01:02;;;;;;;;;25.33;25.33;;;;;21.84;69.63;101050.19;5020079;28;9766;-65
2022/08/17 03:03:29;;;;;;;;;29.00;29.00;;;;;21.85;69.57;101059.25;5031946;28;8914;-65
2022/08/17 03:05:55;;;;;;;;;30.33;26.33;;;;;21.85;69.89;101067.47;5012318;28;9088;-65
2022/08/17 03:08:22;;;;;;;;;30.33;30.33;;;;;21.84;69.93;101071.31;5031605;28;8939;-65
2022/08/17 03:10:49;;;;;;;;;31.33;29.67;;;;;21.80;69.99;101084.69;5023005;28;8986;-65
2022/08/17 03:13:16;;;;;;;;;39.00;35.33;;;;;21.76;70.37;101112.91;5028234;28;9017;-65
2022/08/17 03:15:44;;;;;;;;;36.00;32.33;;;;;21.68;70.53;101115.03;5024517;28;9295;-66
2022/08/17 03:18:16;;;;;;;;;32.67;31.33;;;;;21.63;70.72;101117.72;5029564;28;9297;-65
2022/08/17 03:20:54;;;;;;;;;28.00;28.00;;;;;21.60;70.79;101118.25;5030998;28;9068;-65
2022/08/17 03:23:21;;;;;;;;;27.25;24.50;;;;;21.53;70.73;101123.09;5031524;28;9478;-65
2022/08/17 03:25:51;;;;;;;;;30.00;27.50;;;;;21.50;70.73;101133.75;5015672;28;9580;-65
2022/08/17 03:28:20;;;;;;;;;23.50;22.25;;;;;21.51;70.85;101128.00;5021485;28;8838;-65
2022/08/17 03:30:47;;;;;;;;;20.00;19.00;;;;;21.48;70.52;101125.81;5030661;28;8818;-65
2022/08/17 03:33:15;;;;;;;;;15.25;14.00;;;;;21.42;70.40;101122.19;5031281;28;8826;-65
2022/08/17 03:35:41;;;;;;;;;16.75;15.75;;;;;21.40;70.29;101127.09;5026514;28;8848;-65
2022/08/17 03:38:10;;;;;;;;;16.00;16.00;;;;;21.40;70.14;101109.84;5011479;28;8844;-65
2022/08/17 03:40:37;;;;;;;;;17.25;15.75;;;;;21.43;69.84;101101.94;5015774;28;8929;-65
2022/08/17 03:43:25;;;;;;;;;14.50;13.50;;;;;21.42;69.73;101094.78;5027101;28;8819;-64
2022/08/17 03:57:12;;;;;;;;;18.50;18.50;;;;;21.24;70.19;101071.34;5019804;28;9645;-65
2022/08/17 03:59:39;;;;;;;;;21.75;19.50;;;;;21.17;70.26;101069.88;5028956;28;8843;-65
2022/08/17 04:02:10;;;;;;;;;23.50;21.25;;;;;21.11;70.35;101066.28;5029901;28;8806;-65
2022/08/17 04:04:38;;;;;;;;;19.50;19.50;;;;;21.08;71.00;101065.97;5030755;28;8929;-65
2022/08/17 04:07:06;;;;;;;;;22.00;21.00;;;;;21.04;71.01;101065.66;5024873;28;8832;-65
2022/08/17 04:09:33;;;;;;;;;22.50;21.50;;;;;21.03;71.15;101065.94;5030886;28;8969;-65
2022/08/17 04:11:59;;;;;;;;;30.33;30.33;;;;;20.93;71.14;101055.69;5029827;28;8903;-65
2022/08/17 04:14:35;;;;;;;;;24.75;21.25;;;;;20.88;71.62;101058.38;5030907;28;9029;-65
2022/08/17 04:17:19;;;;;;;;;30.50;24.25;;;;;20.90;71.77;101058.94;5029045;28;8840;-65
2022/08/17 04:19:45;;;;;;;;;30.75;28.00;;;;;20.90;71.54;101061.66;5029307;28;8852;-65
2022/08/17 04:22:12;;;;;;;;;27.00;26.25;;;;;20.90;71.81;101061.66;5019174;28;8951;-65
2022/08/17 04:25:06;;;;;;;;;34.00;33.33;;;;;20.84;71.47;101059.97;5030530;28;8852;-65
2022/08/17 04:27:32;;;;;;;;;30.00;29.00;;;;;20.82;72.18;101065.69;5011501;28;8922;-65
2022/08/17 04:29:59;;;;;;;;;28.00;26.67;;;;;20.85;71.98;101061.63;5022212;28;9157;-65
2022/08/17 04:32:26;;;;;;;;;33.33;30.00;;;;;20.89;72.18;101058.13;5025436;28;8996;-65
2022/08/17 04:35:17;;;;;;;;;36.67;31.00;;;;;20.94;72.23;101069.13;5024406;28;9079;-65
2022/08/17 04:37:44;;;;;;;;;27.33;27.33;;;;;20.94;72.22;101071.03;5024974;28;9261;-65
2022/08/17 04:43:01;;;;;;;;;25.25;22.00;;;;;20.95;72.36;101102.78;5009555;28;9131;-65
2022/08/17 04:45:27;;;;;;;;;31.00;26.33;;;;;20.97;72.39;101106.09;5013505;28;8979;-64
2022/08/17 04:47:59;;;;;;;;;23.75;20.25;;;;;21.03;72.52;101110.56;5030244;28;9082;-64
2022/08/17 04:50:26;;;;;;;;;23.00;21.75;;;;;21.06;72.71;101090.84;5021428;28;8893;-65
2022/08/17 04:52:54;;;;;;;;;23.67;23.00;;;;;21.02;72.20;101062.34;5028468;28;8887;-65
2022/08/17 04:55:21;;;;;;;;;33.33;30.00;;;;;20.98;72.17;101055.72;5029665;28;9000;-65
2022/08/17 04:57:47;;;;;;;;;27.33;23.00;;;;;20.99;72.38;101065.63;5029857;28;9020;-65
2022/08/17 05:00:14;;;;;;;;;44.00;38.25;;;;;21.00;72.61;101067.28;5028710;28;9173;-65
2022/08/17 05:02:46;;;;;;;;;40.33;36.33;;;;;20.99;72.80;101071.09;5010775;28;9445;-65
2022/08/17 05:05:25;;;;;;;;;39.33;36.33;;;;;20.98;72.94;101062.06;5016587;28;9191;-65
2022/08/17 05:07:53;;;;;;;;;36.67;31.00;;;;;20.97;73.13;101048.63;5025325;28;9060;-65
2022/08/17 05:10:21;;;;;;;;;46.33;38.33;;;;;20.97;73.15;101040.41;5029205;28;9162;-65
2022/08/17 05:13:14;;;;;;;;;41.50;37.25;;;;;20.86;73.25;101044.13;5029926;28;9301;-65
2022/08/17 05:15:43;;;;;;;;;39.25;35.50;;;;;20.79;74.17;101052.56;5020817;28;9470;-64
2022/08/17 05:18:11;;;;;;;;;42.00;35.50;;;;;20.81;74.48;101065.97;5008580;28;9839;-65
2022/08/17 05:20:39;;;;;;;;;43.50;38.00;;;;;20.83;74.29;101077.50;5015355;28;9799;-65
2022/08/17 05:23:09;;;;;;;;;35.67;35.67;;;;;20.84;74.35;101095.56;5021547;28;9493;-65
2022/08/17 05:25:40;;;;;;;;;29.33;28.00;;;;;20.88;74.32;101099.44;5023286;28;9311;-65
2022/08/17 05:28:08;;;;;;;;;32.67;32.00;;;;;20.88;73.84;101086.56;5028743;28;9162;-65
2022/08/17 05:30:35;;;;;;;;;39.25;34.25;;;;;20.83;73.74;101067.38;5029245;28;9898;-66
2022/08/17 05:33:08;;;;;;;;;33.00;30.00;;;;;20.83;73.71;101064.63;5029961;28;9479;-66
2022/08/17 05:35:39;;;;;;;;;35.67;30.33;;;;;20.87;73.57;101056.75;5025926;28;9169;-65
2022/08/17 05:38:07;;;;;;;;;44.00;39.00;;;;;20.87;73.54;101056.75;5013080;28;9243;-65
2022/08/17 05:40:34;;;;;;;;;35.00;30.67;;;;;20.84;73.45;101044.38;5024669;28;9553;-64
2022/08/17 05:43:09;;;;;;;;;40.67;34.67;;;;;20.81;73.51;101046.81;5016029;28;9247;-65
2022/08/17 05:45:39;;;;;;;;;34.67;31.00;;;;;20.80;73.35;101048.72;5029011;28;9370;-65
2022/08/17 05:48:22;;;;;;;;;37.00;35.50;;;;;20.78;73.50;101042.66;5025777;28;9069;-65
2022/08/17 05:51:13;;;;;;;;;37.67;34.00;;;;;20.81;73.38;101042.16;5031725;28;9438;-65
2022/08/17 05:53:42;;;;;;;;;30.33;29.00;;;;;20.78;73.59;101034.47;5033436;28;9281;-65
2022/08/17 05:56:26;;;;;;;;;28.33;27.00;;;;;20.73;73.49;101021.56;5024716;28;9186;-66
2022/08/17 05:59:13;;;;;;;;;26.33;26.00;;;;;20.73;73.36;101020.72;5032880;28;8899;-65
2022/08/17 06:02:10;;;;;;;;;30.67;28.00;;;;;20.74;73.46;101027.84;5026288;28;9049;-65
2022/08/17 06:05:19;;;;;;;;;29.33;27.67;;;;;20.78;73.47;101036.38;5015249;28;9165;-65
2022/08/17 06:07:58;;;;;;;;;32.33;30.67;;;;;20.78;73.02;101041.84;5018463;28;9005;-65
2022/08/17 06:10:29;;;;;;;;;25.67;23.33;;;;;20.75;73.73;101045.94;5019217;28;11112;-65
2022/08/17 06:12:58;;;;;;;;;20.50;20.00;;;;;20.80;73.55;101056.09;5029595;28;8912;-66
2022/08/17 06:15:37;;;;;;;;;21.00;19.00;;;;;20.85;73.75;101067.09;5032160;28;8872;-65
2022/08/17 06:18:07;;;;;;;;;22.33;21.67;;;;;20.86;73.89;101072.31;5029255;28;8837;-66
2022/08/17 06:20:57;;;;;;;;;24.00;22.50;;;;;20.88;73.70;101077.53;5019376;28;9014;-66
2022/08/17 06:23:42;;;;;;;;;18.50;18.50;;;;;20.88;73.38;101085.75;5017328;28;8822;-64
2022/08/17 06:26:15;;;;;;;;;26.00;24.67;;;;;20.94;73.03;101092.91;5029288;28;8853;-66
2022/08/17 06:29:00;;;;;;;;;19.75;19.75;;;;;20.95;72.42;101081.72;5032085;28;9128;-66
2022/08/17 06:31:32;;;;;;;;;16.75;15.25;;;;;20.92;72.13;101081.41;5030340;28;8953;-65
2022/08/17 06:34:01;;;;;;;;;17.50;17.50;;;;;20.89;72.63;101077.28;5023954;28;8872;-66
2022/08/17 06:37:10;;;;;;;;;22.50;20.50;;;;;20.88;72.82;101075.63;5023965;28;8939;-66
2022/08/17 06:39:57;;;;;;;;;19.00;17.75;;;;;20.89;72.98;101084.66;4990876;28;8838;-65
2022/08/17 06:42:46;;;;;;;;;18.50;18.25;;;;;20.89;72.93;101074.53;5030777;28;8842;-66
2022/08/17 06:45:40;;;;;;;;;16.75;16.50;;;;;20.86;72.99;101076.94;5027155;28;9556;-66
2022/08/17 06:48:35;;;;;;;;;15.50;15.00;;;;;20.81;72.86;101076.91;5027135;28;8849;-66
2022/08/17 06:51:16;;;;;;;;;15.00;13.75;;;;;20.78;73.04;101080.16;5020232;28;8934;-66
2022/08/17 06:53:47;;;;;;;;;16.25;16.00;;;;;20.75;73.18;101084.25;5028364;28;8884;-66
2022/08/17 06:56:27;;;;;;;;;15.00;14.25;;;;;20.72;73.35;101080.09;5028857;28;8927;-65
2022/08/17 06:59:19;;;;;;;;;16.50;15.25;;;;;20.69;73.19;101094.28;5025517;28;8860;-65
2022/08/17 07:01:48;;;;;;;;;14.75;12.50;;;;;20.73;73.54;101106.38;5016665;28;8972;-66
2022/08/17 07:04:22;;;;;;;;;15.50;13.50;;;;;20.75;73.62;101117.06;5029543;28;9029;-66
2022/08/17 07:06:55;;;;;;;;;17.50;16.75;;;;;20.78;73.67;101118.44;5016437;28;8844;-65
2022/08/17 07:09:30;;;;;;;;;12.00;10.50;;;;;20.73;73.39;101111.84;5010582;28;8844;-66
2022/08/17 07:12:21;;;;;;;;;14.00;13.50;;;;;20.65;73.39;101106.81;5012819;28;9520;-65
2022/08/17 07:14:52;;;;;;;;;13.25;12.75;;;;;20.60;73.42;101103.19;5023577;28;9670;-65
2022/08/17 07:17:21;;;;;;;;;10.67;10.67;;;;;20.61;73.36;101096.63;5025075;28;8923;-66
2022/08/17 07:20:11;;;;;;;;;13.75;13.75;;;;;20.53;73.23;101108.84;5030906;28;8935;-65
2022/08/17 07:22:52;;;;;;;;;12.50;12.50;;;;;20.51;73.52;101108.28;5011493;28;8857;-66
2022/08/17 07:25:29;;;;;;;;;11.50;11.50;;;;;20.52;73.58;101115.41;5013912;28;8859;-66
2022/08/17 07:28:01;;;;;;;;;13.50;12.50;;;;;20.53;73.56;101124.44;5029087;28;8833;-65
2022/08/17 07:30:53;;;;;;;;;15.00;12.00;;;;;20.49;73.36;101126.84;5030435;28;8826;-66
2022/08/17 07:33:24;;;;;;;;;15.50;13.75;;;;;20.43;73.64;101123.19;5025991;28;8854;-65
2022/08/17 07:35:51;;;;;;;;;14.75;13.50;;;;;20.40;73.92;101122.88;5025229;28;8840;-65
2022/08/17 07:38:20;;;;;;;;;8.25;8.25;;;;;20.44;73.93;101111.16;5009566;28;8841;-65
2022/08/17 07:41:07;;;;;;;;;10.50;10.25;;;;;20.50;73.62;101109.38;5013020;28;8845;-66
2022/08/17 07:43:39;;;;;;;;;10.50;10.50;;;;;20.57;73.44;101110.00;5011100;28;8845;-65
2022/08/17 07:49:02;;;;;;;;;10.25;9.50;;;;;20.63;72.90;101105.44;5011137;28;8832;-66
2022/08/17 07:51:51;;;;;;;;;13.25;13.00;;;;;20.61;72.73;101108.41;5009964;28;9642;-65
2022/08/17 07:54:21;;;;;;;;;10.25;10.25;;;;;20.62;72.83;101110.06;5010956;28;8970;-66
2022/08/17 07:56:54;;;;;;;;;8.25;7.00;;;;;20.66;72.92;101108.50;5011177;28;8873;-65
2022/08/17 07:59:30;;;;;;;;;8.50;8.50;;;;;20.70;72.53;101109.63;5010827;28;8883;-66
2022/08/17 08:02:06;;;;;;;;;9.00;9.00;;;;;20.75;72.59;101119.81;5010993;28;8848;-65
2022/08/17 08:04:45;;;;;;;;;11.75;10.00;;;;;20.77;72.52;101101.22;5011167;28;9257;-65
2022/08/17 08:07:53;;;;;;;;;12.75;12.00;;;;;20.80;72.79;101121.78;5009700;28;8841;-66
2022/08/17 08:10:34;;;;;;;;;12.50;11.50;;;;;20.78;72.83;101122.00;5006770;28;8829;-65
2022/08/17 08:13:03;;;;;;;;;13.25;13.00;;;;;20.83;73.00;101115.78;5029233;28;8826;-65
2022/08/17 08:15:48;;;;;;;;;20.75;16.25;;;;;20.82;72.87;101128.63;5022190;28;8850;-65
2022/08/17 08:18:42;;;;;;;;;14.00;14.00;;;;;20.82;73.29;101125.88;5010262;28;8816;-66
2022/08/17 08:21:45;;;;;;;;;15.25;14.25;;;;;20.88;73.76;101126.78;5020553;28;8838;-66
2022/08/17 08:24:30;;;;;;;;;14.50;14.50;;;;;20.89;73.42;101131.19;5029058;28;8818;-65
2022/08/17 08:27:41;;;;;;;;;14.75;14.50;;;;;20.94;73.74;101126.59;5028105;28;8908;-66
2022/08/17 08:30:13;;;;;;;;;17.25;15.75;;;;;20.98;73.34;101133.22;4987126;28;8855;-65
2022/08/17 08:33:18;;;;;;;;;14.50;13.00;;;;;21.03;73.27;101142.56;4969261;28;8837;-65
2022/08/17 08:35:52;;;;;;;;;18.25;16.00;;;;;20.95;73.26;101131.00;5011035;28;8873;-65
2022/08/17 08:38:34;;;;;;;;;13.75;12.75;;;;;20.96;73.16;101137.28;5029982;28;8838;-65
2022/08/17 08:41:16;;;;;;;;;14.00;13.50;;;;;20.97;73.52;101137.00;5022607;28;8851;-65
2022/08/17 08:43:52;;;;;;;;;14.00;13.00;;;;;21.00;73.37;101138.44;5010395;28;8943;-66
2022/08/17 08:46:52;;;;;;;;;23.00;20.75;;;;;20.99;73.22;101128.56;5017639;28;8878;-66
2022/08/17 08:49:41;;;;;;;;;13.50;13.00;;;;;20.95;73.42;101128.25;5015822;28;8840;-66
2022/08/17 08:52:49;;;;;;;;;13.00;12.25;;;;;20.99;73.73;101125.84;5028728;28;8864;-65
2022/08/17 08:55:53;;;;;;;;;13.75;13.50;;;;;21.03;73.63;101137.91;5028602;28;8948;-65
2022/08/17 08:58:35;;;;;;;;;15.50;13.75;;;;;21.03;73.73;101139.84;5002273;28;8820;-65
2022/08/17 09:01:26;;;;;;;;;19.50;16.50;;;;;21.07;74.12;101141.78;5010386;28;8812;-66
2022/08/17 09:03:52;;;;;;;;;20.25;20.25;;;;;21.10;74.24;101140.44;5009864;28;9594;-66
2022/08/17 09:07:03;;;;;;;;;17.50;16.25;;;;;21.10;74.08;101138.53;5019172;28;8973;-65
2022/08/17 09:09:45;;;;;;;;;23.00;20.50;;;;;21.10;74.33;101144.00;5010008;28;8821;-65
2022/08/17 09:12:28;;;;;;;;;20.00;19.50;;;;;21.13;74.21;101150.88;5010163;28;8833;-66
2022/08/17 09:15:20;;;;;;;;;27.50;24.25;;;;;21.11;73.75;101155.81;5013828;28;9582;-65
2022/08/17 09:17:58;;;;;;;;;25.75;25.75;;;;;20.95;73.26;101157.53;5009838;28;8862;-65
2022/08/17 09:20:54;;;;;;;;;19.00;18.50;;;;;20.86;73.21;101157.13;5014019;28;8844;-65
2022/08/17 09:23:43;;;;;;;;;17.50;17.50;;;;;20.88;73.08;101156.91;5028458;28;9542;-66
2022/08/17 09:26:24;;;;;;;;;26.00;23.67;;;;;20.85;72.57;101158.22;5031720;28;8846;-66
2022/08/17 09:28:54;;;;;;;;;20.25;19.00;;;;;20.88;72.75;101163.19;5033113;28;9683;-65
2022/08/17 09:31:28;;;;;;;;;27.67;24.67;;;;;20.84;71.71;101161.22;5023240;28;8955;-65
2022/08/17 09:34:04;;;;;;;;;35.33;32.00;;;;;20.79;71.51;101159.25;5013532;28;8967;-66
2022/08/17 09:36:39;;;;;;;;;23.50;22.00;;;;;20.85;71.95;101162.88;5014240;28;9149;-65
2022/08/17 09:39:16;;;;;;;;;23.25;21.50;;;;;20.92;71.44;101168.97;5014357;28;9563;-65
2022/08/17 09:42:03;;;;;;;;;31.33;27.00;;;;;20.94;71.35;101162.19;5026406;28;8949;-65
2022/08/17 09:44:55;;;;;;;;;21.00;19.25;;;;;21.00;71.61;101171.28;5033497;28;8922;-65
2022/08/17 09:47:46;;;;;;;;;24.00;22.25;;;;;20.99;71.54;101175.91;5014489;28;8963;-65
2022/08/17 09:50:23;;;;;;;;;27.33;23.00;;;;;20.97;71.40;101178.06;5012431;28;9642;-65
2022/08/17 09:53:09;;;;;;;;;20.00;19.50;;;;;20.97;71.73;101172.59;5011782;28;9015;-65
2022/08/17 09:56:05;;;;;;;;;21.00;21.00;;;;;21.00;71.70;101165.78;5017067;28;8909;-65
2022/08/17 09:59:07;;;;;;;;;24.50;24.00;;;;;21.03;71.63;101172.69;5031462;28;8830;-66
2022/08/17 10:02:28;;;;;;;;;20.50;20.50;;;;;21.04;71.95;101171.59;5031197;28;9517;-66
2022/08/17 10:05:07;;;;;;;;;21.00;19.00;;;;;21.08;71.89;101189.97;5003620;28;8938;-65
2022/08/17 10:07:48;;;;;;;;;17.00;15.75;;;;;21.10;71.52;101206.13;5019660;28;8912;-66
2022/08/17 10:10:28;;;;;;;;;18.00;17.25;;;;;21.11;71.62;101216.84;5030905;28;8842;-65
2022/08/17 10:13:05;;;;;;;;;22.00;20.00;;;;;21.14;71.58;101215.50;5032768;28;8830;-65
2022/08/17 10:15:53;;;;;;;;;22.00;21.00;;;;;21.13;71.74;101217.41;5030783;28;8830;-66
2022/08/17 10:18:48;;;;;;;;;21.50;21.00;;;;;21.12;71.70;101221.22;5032129;28;8868;-65
2022/08/17 10:27:09;;;;;;;;;20.50;19.50;;;;;21.07;71.68;101236.78;5030092;28;8970;-66
2022/08/17 10:29:45;;;;;;;;;20.25;18.50;;;;;21.06;72.08;101235.94;5031939;28;8944;-65
2022/08/17 10:32:33;;;;;;;;;20.25;20.00;;;;;21.06;72.26;101214.03;5016136;28;8855;-65
2022/08/17 10:35:24;;;;;;;;;28.00;25.00;;;;;21.02;72.71;101160.88;5012791;28;8837;-65
2022/08/17 10:38:15;;;;;;;;;18.25;16.75;;;;;20.94;73.38;101109.34;5011108;28;8964;-66
2022/08/17 10:41:05;;;;;;;;;23.50;23.50;;;;;20.83;73.94;101091.16;5017151;28;8822;-65
2022/08/17 10:43:47;;;;;;;;;21.00;19.33;;;;;20.73;74.90;101102.81;5027188;28;8838;-64
2022/08/17 10:46:52;;;;;;;;;29.00;28.00;;;;;20.68;75.11;101113.69;5028724;28;8919;-63
2022/08/17 10:49:19;;;;;;;;;31.00;30.00;;;;;20.64;75.51;101110.63;5027302;28;8946;-65
2022/08/17 10:51:52;;;;;;;;;20.75;20.75;;;;;20.63;75.89;101125.41;5016124;28;8979;-65
2022/08/17 10:54:37;;;;;;;;;28.00;25.50;;;;;20.59;76.18;101134.38;5010696;28;8841;-65
2022/08/17 10:57:32;;;;;;;;;22.75;21.75;;;;;20.59;75.85;101127.00;5012181;28;8943;-65
2022/08/17 11:00:01;;;;;;;;;30.00;27.33;;;;;20.51;76.37;101138.38;5025815;28;8924;-65
2022/08/17 11:02:37;;;;;;;;;20.50;20.25;;;;;20.46;76.62;101154.69;5013762;28;8916;-64
2022/08/17 11:05:27;;;;;;;;;22.50;22.25;;;;;20.51;76.87;101165.72;5011867;28;8817;-64
2022/08/17 11:08:29;;;;;;;;;24.50;22.75;;;;;20.60;76.88;101169.66;5021217;28;8840;-64
2022/08/17 11:11:34;;;;;;;;;29.25;26.00;;;;;20.69;76.89;101181.81;5018126;28;8810;-65
2022/08/17 11:14:22;;;;;;;;;33.67;33.67;;;;;20.76;76.93;101186.28;5031413;28;8923;-64
2022/08/17 11:17:10;;;;;;;;;28.75;25.50;;;;;20.79;76.68;101196.72;5012236;28;8978;-64
2022/08/17 11:19:45;;;;;;;;;26.00;25.00;;;;;20.84;76.55;101197.63;5011529;28;8809;-64
2022/08/17 11:22:32;;;;;;;;;22.50;21.75;;;;;20.89;76.77;101211.34;5017345;28;9554;-64
2022/08/17 11:25:19;;;;;;;;;23.50;22.75;;;;;20.94;76.41;101213.31;5028775;28;8924;-62
2022/08/17 11:27:52;;;;;;;;;33.67;30.67;;;;;20.91;76.45;101216.59;5010422;28;8997;-64
2022/08/17 11:30:45;;;;;;;;;27.67;27.67;;;;;20.92;76.47;101213.59;5029554;28;8931;-64
2022/08/17 11:33:29;;;;;;;;;36.33;35.67;;;;;20.90;76.32;101217.66;5030870;28;8983;-65
2022/08/17 11:36:11;;;;;;;;;32.00;32.00;;;;;20.89;76.58;101222.31;5026555;28;9032;-65
2022/08/17 11:38:56;;;;;;;;;35.67;32.00;;;;;20.88;76.46;101228.88;5010944;28;9051;-64
2022/08/17 11:41:38;;;;;;;;;33.00;31.67;;;;;20.80;76.10;101234.78;5021367;28;9248;-65
2022/08/17 11:44:23;;;;;;;;;35.00;35.00;;;;;20.71;76.04;101239.84;5021095;28;9089;-64
2022/08/17 11:53:37;;;;;;;;;28.67;28.33;;;;;20.65;76.15;101254.53;5030702;28;8899;-65
2022/08/17 11:56:27;;;;;;;;;29.67;24.33;;;;;20.67;76.14;101255.13;5021945;28;8986;-65
2022/08/17 11:58:54;;;;;;;;;27.00;26.25;;;;;20.66;75.94;101258.94;5029128;28;8932;-65
2022/08/17 12:01:21;;;;;;;;;33.67;33.00;;;;;20.65;75.68;101250.97;5020114;28;8828;-65
2022/08/17 12:03:53;;;;;;;;;28.00;27.00;;;;;20.62;75.64;101254.19;5010080;28;9358;-65
2022/08/17 12:06:33;;;;;;;;;33.33;32.33;;;;;20.60;75.86;101264.56;5018071;28;8994;-65
2022/08/17 12:09:09;;;;;;;;;31.67;31.00;;;;;20.60;75.78;101268.13;5011797;28;9112;-64
2022/08/17 12:11:44;;;;;;;;;25.67;25.67;;;;;20.61;75.38;101274.44;5010673;28;9154;-65
2022/08/17 12:14:34;;;;;;;;;23.50;19.00;;;;;20.57;75.29;101276.84;5028264;28;9661;-66
2022/08/17 12:17:26;;;;;;;;;26.25;23.25;;;;;20.57;75.49;101276.84;5020622;28;8826;-64
2022/08/17 12:20:12;;;;;;;;;22.75;21.25;;;;;20.57;74.95;101281.47;5022473;28;8830;-64
2022/08/17 12:22:53;;;;;;;;;23.67;19.67;;;;;20.55;74.92;101281.75;5021242;28;9588;-65
2022/08/17 12:25:30;;;;;;;;;21.50;20.75;;;;;20.59;74.98;101280.16;5017537;28;8963;-64
2022/08/17 12:27:56;;;;;;;;;31.33;29.33;;;;;20.56;74.76;101277.91;5029722;28;8838;-64
2022/08/17 12:30:33;;;;;;;;;23.50;22.00;;;;;20.58;74.92;101277.66;5026494;28;8996;-65
2022/08/17 12:32:59;;;;;;;;;20.00;20.00;;;;;20.57;74.71;101265.06;5016320;28;8916;-64